createdAt,value
2018-08-03T00:00:09.713Z,99.9
2018-08-03T00:01:16.929Z,99.9
2018-08-03T00:02:24.142Z,99.9
2018-08-03T00:03:31.356Z,99.9
2018-08-03T00:04:38.567Z,99.9
2018-08-03T00:05:45.782Z,99.9
2018-08-03T00:06:53.028Z,99.9
2018-08-03T00:08:00.241Z,99.9
2018-08-03T00:09:07.456Z,99.9
2018-08-03T00:10:14.400Z,99.9
2018-08-03T00:11:21.614Z,99.9
2018-08-03T00:12:28.824Z,99.9
2018-08-03T00:13:36.041Z,99.9
2018-08-03T00:14:42.993Z,99.9
2018-08-03T00:15:50.205Z,99.9
2018-08-03T00:16:57.415Z,99.9
2018-08-03T00:18:04.628Z,99.9
2018-08-03T00:19:11.843Z,99.9
2018-08-03T00:20:19.057Z,99.9
2018-08-03T00:21:26.270Z,99.9
2018-08-03T00:22:33.485Z,99.9
2018-08-03T00:23:40.700Z,99.9
2018-08-03T00:24:47.909Z,99.9
2018-08-03T00:25:55.127Z,99.9
2018-08-03T00:27:02.339Z,99.9
2018-08-03T00:28:09.554Z,99.9
2018-08-03T00:29:16.770Z,99.9
2018-08-03T00:30:23.986Z,99.9
2018-08-03T00:31:31.198Z,99.9
2018-08-03T00:32:38.411Z,99.9
2018-08-03T00:33:45.399Z,99.9
2018-08-03T00:34:52.612Z,99.9
2018-08-03T00:35:59.826Z,99.9
2018-08-03T00:37:07.040Z,99.9
2018-08-03T00:38:13.971Z,99.9
2018-08-03T00:39:21.183Z,99.9
2018-08-03T00:40:28.391Z,99.9
2018-08-03T00:41:35.607Z,99.9
2018-08-03T00:42:42.825Z,99.9
2018-08-03T00:43:50.041Z,99.9
2018-08-03T00:46:19.116Z,99.9
2018-08-03T00:47:26.329Z,99.9
2018-08-03T00:48:33.588Z,99.9
2018-08-03T00:49:40.786Z,99.9
2018-08-03T00:50:47.994Z,99.9
2018-08-03T00:51:55.207Z,99.9
2018-08-03T00:54:09.333Z,99.9
2018-08-03T00:55:16.268Z,99.9
2018-08-03T00:56:23.482Z,99.9
2018-08-03T00:57:30.695Z,99.9
2018-08-03T00:58:37.913Z,99.9
2018-08-03T00:59:45.126Z,99.9
2018-08-03T01:00:52.339Z,99.9
2018-08-03T01:01:59.551Z,99.9
2018-08-03T01:03:06.771Z,99.9
2018-08-03T01:04:13.995Z,99.9
2018-08-03T01:05:21.202Z,99.9
2018-08-03T01:06:28.415Z,99.9
2018-08-03T01:07:35.628Z,99.9
2018-08-03T01:08:42.844Z,99.9
2018-08-03T01:09:50.053Z,99.9
2018-08-03T01:10:57.267Z,99.9
2018-08-03T01:12:04.484Z,99.9
2018-08-03T01:13:11.693Z,99.9
2018-08-03T01:14:18.902Z,99.9
2018-08-03T01:15:26.117Z,99.9
2018-08-03T01:16:33.333Z,99.9
2018-08-03T01:17:40.551Z,99.9
2018-08-03T01:18:47.495Z,99.9
2018-08-03T01:19:54.708Z,99.9
2018-08-03T01:21:01.948Z,99.9
2018-08-03T01:22:09.152Z,99.9
2018-08-03T01:23:16.098Z,99.9
2018-08-03T01:24:23.032Z,99.9
2018-08-03T01:25:30.245Z,99.9
2018-08-03T01:26:37.459Z,99.9
2018-08-03T01:27:44.670Z,99.9
2018-08-03T01:28:51.884Z,99.9
2018-08-03T01:29:59.102Z,99.9
2018-08-03T01:31:06.319Z,99.9
2018-08-03T01:32:13.538Z,99.9
2018-08-03T01:33:20.748Z,99.9
2018-08-03T01:34:27.965Z,99.9
2018-08-03T01:35:35.179Z,99.9
2018-08-03T01:36:42.391Z,99.9
2018-08-03T01:37:49.606Z,99.9
2018-08-03T01:38:57.088Z,99.9
2018-08-03T01:40:04.302Z,99.9
2018-08-03T01:41:11.521Z,99.9
2018-08-03T01:42:18.732Z,99.9
2018-08-03T01:43:25.949Z,99.9
2018-08-03T01:44:33.164Z,99.9
2018-08-03T01:45:40.374Z,99.9
2018-08-03T01:46:47.316Z,99.9
2018-08-03T01:47:54.548Z,99.9
2018-08-03T01:49:01.762Z,99.9
2018-08-03T01:50:08.975Z,99.9
2018-08-03T01:51:16.187Z,99.9
2018-08-03T01:52:23.396Z,99.9
2018-08-03T01:53:30.613Z,99.9
2018-08-03T01:54:37.823Z,99.9
2018-08-03T01:55:45.037Z,99.9
2018-08-03T01:56:52.247Z,99.9
2018-08-03T01:57:59.455Z,99.9
2018-08-03T01:59:06.413Z,99.9
2018-08-03T02:00:13.908Z,99.9
2018-08-03T02:01:21.120Z,99.9
2018-08-03T02:02:28.058Z,99.9
2018-08-03T02:03:35.278Z,99.9
2018-08-03T02:04:42.490Z,99.9
2018-08-03T02:05:49.702Z,99.9
2018-08-03T02:06:56.913Z,99.9
2018-08-03T02:08:04.127Z,99.9
2018-08-03T02:09:11.068Z,99.9
2018-08-03T02:10:18.278Z,99.9
2018-08-03T02:12:31.860Z,99.9
2018-08-03T02:13:39.071Z,99.9
2018-08-03T02:14:46.283Z,99.9
2018-08-03T02:15:53.224Z,99.9
2018-08-03T02:17:00.439Z,99.9
2018-08-03T02:18:07.656Z,99.9
2018-08-03T02:19:14.872Z,99.9
2018-08-03T02:20:22.083Z,99.9
2018-08-03T02:21:29.296Z,99.9
2018-08-03T02:22:36.509Z,99.9
2018-08-03T02:23:43.726Z,99.9
2018-08-03T02:24:50.940Z,99.9
2018-08-03T02:27:20.021Z,99.9
2018-08-03T02:28:26.960Z,99.9
2018-08-03T02:29:34.178Z,99.9
2018-08-03T02:30:41.397Z,99.9
2018-08-03T02:31:48.610Z,99.9
2018-08-03T02:32:55.827Z,99.9
2018-08-03T02:34:02.783Z,99.9
2018-08-03T02:35:09.991Z,99.9
2018-08-03T02:36:17.203Z,99.9
2018-08-03T02:37:24.425Z,99.9
2018-08-03T02:38:31.638Z,99.9
2018-08-03T02:39:38.849Z,99.9
2018-08-03T02:40:45.787Z,99.9
2018-08-03T02:41:53.001Z,99.9
2018-08-03T02:43:00.212Z,99.9
2018-08-03T02:44:07.430Z,99.9
2018-08-03T02:45:14.649Z,99.9
2018-08-03T02:46:21.859Z,99.9
2018-08-03T02:47:29.074Z,99.9
2018-08-03T02:48:36.286Z,99.9
2018-08-03T22:00:05.760Z,74.5
2018-08-03T22:01:12.972Z,75.6
2018-08-03T22:02:20.184Z,75.1
2018-08-03T22:03:27.394Z,74.6
2018-08-03T22:04:34.613Z,75.3
2018-08-03T22:05:41.827Z,75.5
2018-08-03T22:06:49.039Z,75.6
2018-08-03T22:07:56.253Z,75.6
2018-08-03T22:09:03.466Z,78.1
2018-08-03T22:10:10.679Z,74.5
2018-08-03T22:11:17.892Z,75.8
2018-08-03T22:12:25.112Z,75.7
2018-08-03T22:13:32.323Z,77.4
2018-08-03T22:14:39.530Z,77.8
2018-08-03T22:15:46.739Z,76.7
2018-08-03T22:16:53.950Z,75.8
2018-08-03T22:18:01.161Z,77.3
2018-08-03T22:19:08.373Z,76.3
2018-08-03T22:20:15.587Z,76.6
2018-08-03T22:21:22.799Z,77
2018-08-03T22:22:30.013Z,77.7
2018-08-03T22:23:37.225Z,80.9
2018-08-03T22:24:44.436Z,80
2018-08-03T22:25:51.645Z,78.1
2018-08-03T22:26:58.858Z,76.7
2018-08-03T22:28:06.068Z,80.1
2018-08-03T22:29:13.285Z,82.9
2018-08-03T22:30:20.492Z,82.3
2018-08-03T22:31:27.704Z,82.7
2018-08-03T22:32:35.074Z,83.6
2018-08-03T22:33:42.669Z,78.3
2018-08-03T22:34:49.892Z,81.7
2018-08-03T22:35:56.824Z,80.9
2018-08-03T22:37:03.764Z,81.6
2018-08-03T22:38:10.973Z,80.5
2018-08-03T22:39:18.188Z,78.9
2018-08-03T22:40:25.399Z,81.4
2018-08-03T22:41:32.623Z,79.5
2018-08-03T22:42:39.836Z,79.7
2018-08-03T22:43:47.134Z,80.6
2018-08-03T22:44:54.355Z,80
2018-08-03T22:46:01.571Z,80.8
2018-08-03T22:47:08.778Z,76.3
2018-08-03T22:48:16.009Z,81.5
2018-08-03T22:49:23.225Z,81.2
2018-08-03T22:50:30.166Z,81.1
2018-08-03T22:51:37.379Z,81.4
2018-08-03T22:52:44.602Z,81
2018-08-03T22:53:51.811Z,81.4
2018-08-03T22:54:59.022Z,82.5
2018-08-03T22:56:06.236Z,80.9
2018-08-03T22:57:13.444Z,81.4
2018-08-03T22:58:20.657Z,82.5
2018-08-03T22:59:27.871Z,83.7
2018-08-03T23:00:35.083Z,81.7
2018-08-03T23:01:42.296Z,83.8
2018-08-03T23:04:11.106Z,85
2018-08-03T23:05:18.322Z,82.7
2018-08-03T23:06:25.541Z,87.9
2018-08-03T23:07:32.757Z,85.2
2018-08-03T23:08:39.980Z,87.2
2018-08-03T23:09:47.190Z,89.6
2018-08-03T23:10:54.131Z,88.5
2018-08-03T23:12:01.350Z,89.7
2018-08-03T23:13:08.558Z,88.6
2018-08-03T23:14:16.047Z,90.1
2018-08-03T23:15:23.250Z,88
2018-08-03T23:16:30.463Z,90.4
2018-08-03T23:17:37.674Z,90.6
2018-08-03T23:18:44.891Z,91.8
2018-08-03T23:19:52.103Z,90.4
2018-08-03T23:20:59.047Z,93.2
2018-08-03T23:22:06.265Z,97
2018-08-03T23:23:13.479Z,98.2
2018-08-03T23:24:20.694Z,96.9
2018-08-03T23:25:27.907Z,97.6
2018-08-03T23:26:35.123Z,99.9
2018-08-03T23:27:42.341Z,98
2018-08-03T23:28:49.573Z,99.9
2018-08-03T23:29:56.787Z,99.3
2018-08-03T23:31:04.001Z,99.9
2018-08-03T23:32:11.216Z,99.4
2018-08-03T23:33:18.438Z,99.9
2018-08-03T23:34:25.651Z,99.9
2018-08-03T23:35:32.876Z,99.9
2018-08-03T23:36:39.814Z,99.9
2018-08-03T23:37:47.032Z,99.9
2018-08-03T23:38:54.250Z,99.9
2018-08-03T23:40:01.470Z,99.9
2018-08-03T23:41:08.689Z,99.9
2018-08-03T23:42:15.905Z,99.9
2018-08-03T23:43:23.120Z,99.9
2018-08-03T23:44:30.340Z,99.9
2018-08-03T23:45:37.556Z,99.9
2018-08-03T23:46:44.768Z,99.9
2018-08-03T23:47:51.988Z,99.9
2018-08-03T23:48:59.205Z,99.9
2018-08-03T23:50:06.419Z,99.9
2018-08-03T23:51:13.635Z,99.9
2018-08-03T23:52:20.846Z,99.9
2018-08-03T23:53:28.064Z,99.9
2018-08-03T23:54:35.288Z,99.9
2018-08-03T23:55:42.504Z,99.9
2018-08-03T23:56:49.714Z,99.9
2018-08-03T23:57:56.928Z,99.9
2018-08-03T23:59:03.873Z,99.9
